sensor_id;sensor_type;location;lat;lon;timestamp;pressure;altitude;pressure_sealevel;temperature;humidity
11041;BME280;5573;49.592;8.662;2023-07-09T00:00:48;100115.75;;;19.52;65.59
11041;BME280;5573;49.592;8.662;2023-07-09T00:03:17;100114.94;;;19.52;65.80
11041;BME280;5573;49.592;8.662;2023-07-09T00:05:48;100109.00;;;19.55;66.14
11041;BME280;5573;49.592;8.662;2023-07-09T00:08:25;100113.06;;;19.52;66.22
11041;BME280;5573;49.592;8.662;2023-07-09T00:10:56;100121.94;;;19.48;66.56
11041;BME280;5573;49.592;8.662;2023-07-09T00:13:26;100107.91;;;19.46;66.14
11041;BME280;5573;49.592;8.662;2023-07-09T00:15:58;100107.81;;;19.41;66.42
11041;BME280;5573;49.592;8.662;2023-07-09T00:18:28;100109.72;;;19.40;66.27
11041;BME280;5573;49.592;8.662;2023-07-09T00:20:55;100106.41;;;19.28;67.19
11041;BME280;5573;49.592;8.662;2023-07-09T00:23:25;100119.63;;;19.29;66.92
11041;BME280;5573;49.592;8.662;2023-07-09T00:25:55;100119.22;;;19.43;65.62
11041;BME280;5573;49.592;8.662;2023-07-09T00:28:23;100121.97;;;19.53;65.06
11041;BME280;5573;49.592;8.662;2023-07-09T00:30:51;100122.75;;;19.48;65.83
11041;BME280;5573;49.592;8.662;2023-07-09T00:33:19;100116.00;;;19.51;65.51
11041;BME280;5573;49.592;8.662;2023-07-09T00:35:47;100115.94;;;19.41;66.19
11041;BME280;5573;49.592;8.662;2023-07-09T00:38:19;100129.44;;;19.41;65.94
11041;BME280;5573;49.592;8.662;2023-07-09T00:41:00;100136.44;;;19.36;65.80
11041;BME280;5573;49.592;8.662;2023-07-09T00:43:30;100135.59;;;19.31;65.83
11041;BME280;5573;49.592;8.662;2023-07-09T00:46:16;100140.41;;;19.24;66.48
11041;BME280;5573;49.592;8.662;2023-07-09T00:48:45;100135.22;;;19.17;66.43
11041;BME280;5573;49.592;8.662;2023-07-09T00:51:16;100147.13;;;19.21;66.64
11041;BME280;5573;49.592;8.662;2023-07-09T00:53:49;100138.72;;;19.13;66.96
11041;BME280;5573;49.592;8.662;2023-07-09T00:56:26;100138.97;;;19.11;66.50
11041;BME280;5573;49.592;8.662;2023-07-09T00:58:55;100136.56;;;19.15;66.41
11041;BME280;5573;49.592;8.662;2023-07-09T01:01:26;100139.47;;;19.08;66.60
11041;BME280;5573;49.592;8.662;2023-07-09T01:03:57;100138.63;;;19.03;67.63
11041;BME280;5573;49.592;8.662;2023-07-09T01:06:31;100144.47;;;18.89;67.57
11041;BME280;5573;49.592;8.662;2023-07-09T01:09:02;100142.53;;;18.85;67.48
11041;BME280;5573;49.592;8.662;2023-07-09T01:11:34;100141.69;;;18.79;67.84
11041;BME280;5573;49.592;8.662;2023-07-09T01:14:06;100148.34;;;18.72;68.19
11041;BME280;5573;49.592;8.662;2023-07-09T01:16:37;100152.56;;;18.63;68.65
11041;BME280;5573;49.592;8.662;2023-07-09T01:19:06;100150.13;;;18.61;68.92
11041;BME280;5573;49.592;8.662;2023-07-09T01:21:35;100157.38;;;18.56;69.01
11041;BME280;5573;49.592;8.662;2023-07-09T01:24:12;100111.09;;;18.20;69.36
11041;BME280;5573;49.592;8.662;2023-07-09T01:26:41;100150.09;;;18.34;69.69
11041;BME280;5573;49.592;8.662;2023-07-09T01:29:10;100157.47;;;18.44;69.38
11041;BME280;5573;49.592;8.662;2023-07-09T01:31:39;100150.66;;;18.36;69.93
11041;BME280;5573;49.592;8.662;2023-07-09T01:34:07;100153.28;;;18.31;69.73
11041;BME280;5573;49.592;8.662;2023-07-09T01:36:37;100151.97;;;18.34;69.58
11041;BME280;5573;49.592;8.662;2023-07-09T01:39:06;100148.69;;;18.32;69.85
11041;BME280;5573;49.592;8.662;2023-07-09T01:41:34;100152.81;;;18.34;69.97
11041;BME280;5573;49.592;8.662;2023-07-09T01:44:02;100155.75;;;18.33;70.30
11041;BME280;5573;49.592;8.662;2023-07-09T01:46:31;100156.50;;;18.28;70.68
11041;BME280;5573;49.592;8.662;2023-07-09T01:48:59;100163.44;;;18.24;70.97
11041;BME280;5573;49.592;8.662;2023-07-09T01:51:27;100150.47;;;18.21;70.55
11041;BME280;5573;49.592;8.662;2023-07-09T01:53:57;100151.22;;;18.38;69.65
11041;BME280;5573;49.592;8.662;2023-07-09T01:56:26;100149.78;;;18.53;69.11
11041;BME280;5573;49.592;8.662;2023-07-09T01:58:55;100146.16;;;18.47;69.44
11041;BME280;5573;49.592;8.662;2023-07-09T02:01:28;100150.50;;;18.48;69.42
11041;BME280;5573;49.592;8.662;2023-07-09T02:03:56;100155.41;;;18.51;69.02
11041;BME280;5573;49.592;8.662;2023-07-09T02:06:24;100151.16;;;18.55;68.99
11041;BME280;5573;49.592;8.662;2023-07-09T02:08:54;100156.44;;;18.50;69.31
11041;BME280;5573;49.592;8.662;2023-07-09T02:11:24;100159.63;;;18.42;70.03
11041;BME280;5573;49.592;8.662;2023-07-09T02:13:52;100151.72;;;18.35;70.11
11041;BME280;5573;49.592;8.662;2023-07-09T02:16:20;100150.34;;;18.33;70.32
11041;BME280;5573;49.592;8.662;2023-07-09T02:18:49;100154.59;;;18.29;70.47
11041;BME280;5573;49.592;8.662;2023-07-09T02:21:17;100152.97;;;18.28;70.24
11041;BME280;5573;49.592;8.662;2023-07-09T02:23:45;100148.16;;;18.30;70.43
11041;BME280;5573;49.592;8.662;2023-07-09T02:26:13;100145.19;;;18.31;69.91
11041;BME280;5573;49.592;8.662;2023-07-09T02:28:42;100148.66;;;18.27;70.60
11041;BME280;5573;49.592;8.662;2023-07-09T02:31:09;100144.56;;;18.24;70.62
11041;BME280;5573;49.592;8.662;2023-07-09T02:33:37;100147.28;;;18.24;70.88
11041;BME280;5573;49.592;8.662;2023-07-09T02:36:06;100142.38;;;18.21;70.87
11041;BME280;5573;49.592;8.662;2023-07-09T02:38:34;100140.75;;;18.20;71.03
11041;BME280;5573;49.592;8.662;2023-07-09T02:41:02;100146.41;;;18.19;71.03
11041;BME280;5573;49.592;8.662;2023-07-09T02:43:30;100149.25;;;18.07;71.51
11041;BME280;5573;49.592;8.662;2023-07-09T02:45:59;100144.09;;;18.06;72.04
11041;BME280;5573;49.592;8.662;2023-07-09T02:48:27;100140.25;;;18.02;72.11
11041;BME280;5573;49.592;8.662;2023-07-09T02:50:55;100141.78;;;17.92;72.02
11041;BME280;5573;49.592;8.662;2023-07-09T02:53:23;100143.84;;;18.07;71.47
11041;BME280;5573;49.592;8.662;2023-07-09T02:55:51;100142.97;;;18.23;71.59
11041;BME280;5573;49.592;8.662;2023-07-09T02:58:19;100153.75;;;18.23;70.87
11041;BME280;5573;49.592;8.662;2023-07-09T03:00:48;100148.84;;;18.20;71.04
11041;BME280;5573;49.592;8.662;2023-07-09T03:03:20;100150.84;;;18.30;70.38
11041;BME280;5573;49.592;8.662;2023-07-09T03:05:48;100157.56;;;18.27;70.82
11041;BME280;5573;49.592;8.662;2023-07-09T03:08:16;100156.25;;;18.30;70.56
11041;BME280;5573;49.592;8.662;2023-07-09T03:10:44;100160.75;;;18.24;70.49
11041;BME280;5573;49.592;8.662;2023-07-09T03:13:12;100153.47;;;18.25;70.17
11041;BME280;5573;49.592;8.662;2023-07-09T03:15:39;100158.31;;;18.23;70.54
11041;BME280;5573;49.592;8.662;2023-07-09T03:18:07;100162.38;;;18.25;70.31
11041;BME280;5573;49.592;8.662;2023-07-09T03:20:36;100161.38;;;18.31;70.13
11041;BME280;5573;49.592;8.662;2023-07-09T03:23:05;100166.97;;;18.25;70.31
11041;BME280;5573;49.592;8.662;2023-07-09T03:25:33;100165.31;;;18.24;70.62
11041;BME280;5573;49.592;8.662;2023-07-09T03:28:01;100176.91;;;18.19;70.92
11041;BME280;5573;49.592;8.662;2023-07-09T03:30:29;100171.00;;;18.22;71.10
11041;BME280;5573;49.592;8.662;2023-07-09T03:32:57;100168.50;;;18.16;71.05
11041;BME280;5573;49.592;8.662;2023-07-09T03:35:25;100181.28;;;18.25;71.37
11041;BME280;5573;49.592;8.662;2023-07-09T03:37:54;100175.50;;;18.17;71.21
11041;BME280;5573;49.592;8.662;2023-07-09T03:40:22;100187.28;;;18.32;69.81
11041;BME280;5573;49.592;8.662;2023-07-09T03:42:50;100184.75;;;18.48;69.38
11041;BME280;5573;49.592;8.662;2023-07-09T03:45:18;100189.09;;;18.49;69.32
11041;BME280;5573;49.592;8.662;2023-07-09T03:47:46;100194.13;;;18.40;69.65
11041;BME280;5573;49.592;8.662;2023-07-09T03:50:14;100199.63;;;18.50;69.11
11041;BME280;5573;49.592;8.662;2023-07-09T03:52:42;100191.72;;;18.43;69.45
11041;BME280;5573;49.592;8.662;2023-07-09T03:55:11;100186.91;;;18.46;69.60
11041;BME280;5573;49.592;8.662;2023-07-09T03:57:40;100194.19;;;18.45;69.41
11041;BME280;5573;49.592;8.662;2023-07-09T04:00:08;100190.41;;;18.46;69.52
11041;BME280;5573;49.592;8.662;2023-07-09T04:02:41;100194.94;;;18.40;70.25
11041;BME280;5573;49.592;8.662;2023-07-09T04:05:10;100190.56;;;18.34;70.42
11041;BME280;5573;49.592;8.662;2023-07-09T04:07:38;100193.88;;;18.41;70.21
11041;BME280;5573;49.592;8.662;2023-07-09T04:10:07;100190.97;;;18.48;69.95
11041;BME280;5573;49.592;8.662;2023-07-09T04:12:36;100194.19;;;18.45;70.01
11041;BME280;5573;49.592;8.662;2023-07-09T04:15:05;100195.16;;;18.39;nan
11041;BME280;5573;49.592;8.662;2023-07-09T04:17:33;100202.50;;;18.43;70.34
11041;BME280;5573;49.592;8.662;2023-07-09T04:20:01;100198.25;;;18.48;70.42
11041;BME280;5573;49.592;8.662;2023-07-09T04:22:32;100211.50;;;18.49;70.31
11041;BME280;5573;49.592;8.662;2023-07-09T04:25:01;100202.09;;;18.52;70.52
11041;BME280;5573;49.592;8.662;2023-07-09T04:27:30;100164.38;;;18.35;70.50
11041;BME280;5573;49.592;8.662;2023-07-09T04:29:59;100202.81;;;18.47;70.90
11041;BME280;5573;49.592;8.662;2023-07-09T04:32:27;100198.44;;;18.41;71.18
11041;BME280;5573;49.592;8.662;2023-07-09T04:34:55;100201.69;;;18.43;71.28
11041;BME280;5573;49.592;8.662;2023-07-09T04:37:24;100201.47;;;18.45;71.49
11041;BME280;5573;49.592;8.662;2023-07-09T04:39:52;100198.34;;;18.53;71.22
11041;BME280;5573;49.592;8.662;2023-07-09T04:42:20;100196.78;;;18.57;71.01
11041;BME280;5573;49.592;8.662;2023-07-09T04:44:47;100208.03;;;18.54;71.05
11041;BME280;5573;49.592;8.662;2023-07-09T04:47:17;100207.09;;;18.65;70.76
11041;BME280;5573;49.592;8.662;2023-07-09T04:49:45;100209.00;;;18.64;70.77
11041;BME280;5573;49.592;8.662;2023-07-09T04:52:13;100206.63;;;18.73;70.64
11041;BME280;5573;49.592;8.662;2023-07-09T04:54:42;100210.44;;;18.72;71.24
11041;BME280;5573;49.592;8.662;2023-07-09T04:57:11;100208.22;;;18.69;71.89
11041;BME280;5573;49.592;8.662;2023-07-09T04:59:39;100206.34;;;18.69;72.44
11041;BME280;5573;49.592;8.662;2023-07-09T05:02:08;100209.84;;;18.70;72.54
11041;BME280;5573;49.592;8.662;2023-07-09T05:04:37;100211.03;;;18.79;72.31
11041;BME280;5573;49.592;8.662;2023-07-09T05:07:05;100216.31;;;18.96;71.58
11041;BME280;5573;49.592;8.662;2023-07-09T05:09:33;100223.09;;;18.98;70.83
11041;BME280;5573;49.592;8.662;2023-07-09T05:12:01;100223.78;;;19.15;70.58
11041;BME280;5573;49.592;8.662;2023-07-09T05:14:29;100223.84;;;19.20;70.68
11041;BME280;5573;49.592;8.662;2023-07-09T05:16:57;100225.44;;;19.16;71.84
11041;BME280;5573;49.592;8.662;2023-07-09T05:19:25;100231.13;;;19.20;72.20
11041;BME280;5573;49.592;8.662;2023-07-09T05:21:54;100234.44;;;19.27;71.18
11041;BME280;5573;49.592;8.662;2023-07-09T05:24:22;100239.47;;;19.45;70.49
11041;BME280;5573;49.592;8.662;2023-07-09T05:26:53;100240.81;;;19.43;70.72
11041;BME280;5573;49.592;8.662;2023-07-09T05:29:21;100245.16;;;19.49;70.43
11041;BME280;5573;49.592;8.662;2023-07-09T05:31:49;100253.56;;;19.52;69.96
11041;BME280;5573;49.592;8.662;2023-07-09T05:34:17;100246.41;;;19.68;70.25
11041;BME280;5573;49.592;8.662;2023-07-09T05:36:45;100242.41;;;19.75;69.62
11041;BME280;5573;49.592;8.662;2023-07-09T05:39:14;100240.91;;;19.95;69.99
11041;BME280;5573;49.592;8.662;2023-07-09T05:41:42;100242.88;;;20.09;70.06
11041;BME280;5573;49.592;8.662;2023-07-09T05:44:10;100239.66;;;20.17;70.04
11041;BME280;5573;49.592;8.662;2023-07-09T05:46:38;100235.38;;;20.26;70.34
11041;BME280;5573;49.592;8.662;2023-07-09T05:49:06;100239.22;;;20.30;70.63
11041;BME280;5573;49.592;8.662;2023-07-09T05:51:34;100237.63;;;20.45;69.75
11041;BME280;5573;49.592;8.662;2023-07-09T05:54:02;100240.69;;;20.63;69.94
11041;BME280;5573;49.592;8.662;2023-07-09T05:56:31;100239.16;;;21.03;68.37
11041;BME280;5573;49.592;8.662;2023-07-09T05:58:59;100234.03;;;21.37;66.31
11041;BME280;5573;49.592;8.662;2023-07-09T06:01:27;100234.03;;;21.52;67.16
11041;BME280;5573;49.592;8.662;2023-07-09T06:03:55;100242.44;;;21.55;67.35
11041;BME280;5573;49.592;8.662;2023-07-09T06:06:24;100241.63;;;21.50;67.94
11041;BME280;5573;49.592;8.662;2023-07-09T06:08:53;100233.50;;;21.55;67.21
11041;BME280;5573;49.592;8.662;2023-07-09T06:11:21;100229.69;;;21.66;67.61
11041;BME280;5573;49.592;8.662;2023-07-09T06:13:51;100231.31;;;21.72;67.56
11041;BME280;5573;49.592;8.662;2023-07-09T06:16:19;100231.53;;;21.86;66.66
11041;BME280;5573;49.592;8.662;2023-07-09T06:18:47;100239.97;;;21.99;67.03
11041;BME280;5573;49.592;8.662;2023-07-09T06:21:15;100242.56;;;22.35;65.33
11041;BME280;5573;49.592;8.662;2023-07-09T06:23:44;100238.13;;;22.59;63.54
11041;BME280;5573;49.592;8.662;2023-07-09T06:26:12;100239.00;;;22.93;62.44
11041;BME280;5573;49.592;8.662;2023-07-09T06:28:40;100239.81;;;22.99;61.13
11041;BME280;5573;49.592;8.662;2023-07-09T06:31:09;100249.28;;;23.01;59.83
11041;BME280;5573;49.592;8.662;2023-07-09T06:33:37;100244.41;;;23.03;58.66
11041;BME280;5573;49.592;8.662;2023-07-09T06:36:05;100255.25;;;23.03;59.68
11041;BME280;5573;49.592;8.662;2023-07-09T06:38:34;100259.22;;;23.21;59.54
11041;BME280;5573;49.592;8.662;2023-07-09T06:41:01;100262.19;;;23.19;59.07
11041;BME280;5573;49.592;8.662;2023-07-09T06:43:29;100258.88;;;23.28;58.78
11041;BME280;5573;49.592;8.662;2023-07-09T06:45:59;100255.84;;;23.34;58.24
11041;BME280;5573;49.592;8.662;2023-07-09T06:48:29;100270.22;;;23.45;57.71
11041;BME280;5573;49.592;8.662;2023-07-09T06:50:58;100264.53;;;23.36;57.43
11041;BME280;5573;49.592;8.662;2023-07-09T06:53:28;100266.94;;;23.48;57.70
11041;BME280;5573;49.592;8.662;2023-07-09T06:55:56;100263.31;;;23.52;58.26
11041;BME280;5573;49.592;8.662;2023-07-09T06:58:27;100264.47;;;23.75;57.92
11041;BME280;5573;49.592;8.662;2023-07-09T07:00:55;100262.22;;;24.11;55.80
11041;BME280;5573;49.592;8.662;2023-07-09T07:03:24;100272.69;;;24.70;54.73
11041;BME280;5573;49.592;8.662;2023-07-09T07:05:53;100265.34;;;25.64;51.49
11041;BME280;5573;49.592;8.662;2023-07-09T07:08:23;100275.75;;;26.49;48.45
11041;BME280;5573;49.592;8.662;2023-07-09T07:10:55;100280.84;;;27.05;46.60
11041;BME280;5573;49.592;8.662;2023-07-09T07:13:28;100267.31;;;27.67;45.14
11041;BME280;5573;49.592;8.662;2023-07-09T07:15:56;100267.25;;;27.80;44.94
11041;BME280;5573;49.592;8.662;2023-07-09T07:18:25;100276.63;;;28.19;43.80
11041;BME280;5573;49.592;8.662;2023-07-09T07:20:54;100274.63;;;29.07;41.81
11041;BME280;5573;49.592;8.662;2023-07-09T07:23:22;100273.19;;;29.44;38.47
11041;BME280;5573;49.592;8.662;2023-07-09T07:25:51;100271.34;;;29.65;38.66
11041;BME280;5573;49.592;8.662;2023-07-09T07:28:19;100271.13;;;30.42;36.49
11041;BME280;5573;49.592;8.662;2023-07-09T07:30:47;100268.94;;;30.56;36.21
11041;BME280;5573;49.592;8.662;2023-07-09T07:33:25;100262.69;;;30.01;37.85
11041;BME280;5573;49.592;8.662;2023-07-09T07:35:54;100260.53;;;30.53;35.67
11041;BME280;5573;49.592;8.662;2023-07-09T07:38:42;100268.75;;;29.60;38.67
11041;BME280;5573;49.592;8.662;2023-07-09T07:41:09;100266.34;;;30.22;37.46
11041;BME280;5573;49.592;8.662;2023-07-09T07:43:38;100259.66;;;30.31;38.17
11041;BME280;5573;49.592;8.662;2023-07-09T07:46:06;100257.88;;;29.98;37.50
11041;BME280;5573;49.592;8.662;2023-07-09T07:48:35;100259.72;;;30.52;36.72
11041;BME280;5573;49.592;8.662;2023-07-09T07:51:04;100258.81;;;30.48;37.46
11041;BME280;5573;49.592;8.662;2023-07-09T07:53:32;100259.00;;;31.14;36.22
11041;BME280;5573;49.592;8.662;2023-07-09T07:56:00;100255.13;;;31.48;35.59
11041;BME280;5573;49.592;8.662;2023-07-09T07:58:30;100253.13;;;31.36;35.71
11041;BME280;5573;49.592;8.662;2023-07-09T08:00:59;100252.81;;;31.50;35.82
11041;BME280;5573;49.592;8.662;2023-07-09T08:03:27;100257.19;;;31.18;35.29
11041;BME280;5573;49.592;8.662;2023-07-09T08:05:55;100248.72;;;31.23;35.47
11041;BME280;5573;49.592;8.662;2023-07-09T08:08:27;100252.13;;;31.20;35.28
11041;BME280;5573;49.592;8.662;2023-07-09T08:11:00;100249.13;;;31.46;35.63
11041;BME280;5573;49.592;8.662;2023-07-09T08:13:31;100252.13;;;31.20;34.99
11041;BME280;5573;49.592;8.662;2023-07-09T08:16:00;100249.13;;;31.13;34.82
11041;BME280;5573;49.592;8.662;2023-07-09T08:18:28;100259.66;;;31.32;34.40
11041;BME280;5573;49.592;8.662;2023-07-09T08:20:58;100257.88;;;31.15;35.12
11041;BME280;5573;49.592;8.662;2023-07-09T08:23:25;100257.69;;;31.32;34.61
11041;BME280;5573;49.592;8.662;2023-07-09T08:25:55;100254.81;;;31.28;35.79
11041;BME280;5573;49.592;8.662;2023-07-09T08:28:23;100251.84;;;30.71;36.25
11041;BME280;5573;49.592;8.662;2023-07-09T08:30:52;100240.25;;;30.37;37.30
11041;BME280;5573;49.592;8.662;2023-07-09T08:33:20;100246.59;;;30.28;37.71
11041;BME280;5573;49.592;8.662;2023-07-09T08:35:49;100241.13;;;30.20;37.36
11041;BME280;5573;49.592;8.662;2023-07-09T08:38:18;100244.59;;;30.38;37.32
11041;BME280;5573;49.592;8.662;2023-07-09T08:41:07;100227.28;;;30.08;37.85
11041;BME280;5573;49.592;8.662;2023-07-09T08:43:40;100237.13;;;30.09;38.31
11041;BME280;5573;49.592;8.662;2023-07-09T08:46:17;100246.44;;;30.25;37.00
11041;BME280;5573;49.592;8.662;2023-07-09T08:48:48;100244.84;;;30.53;37.00
11041;BME280;5573;49.592;8.662;2023-07-09T08:51:24;100250.22;;;30.41;38.38
11041;BME280;5573;49.592;8.662;2023-07-09T08:53:57;100242.50;;;30.43;36.47
11041;BME280;5573;49.592;8.662;2023-07-09T08:56:29;100244.56;;;30.46;36.53
11041;BME280;5573;49.592;8.662;2023-07-09T08:59:00;100245.06;;;30.48;36.96
11041;BME280;5573;49.592;8.662;2023-07-09T09:01:32;100244.88;;;30.74;36.41
11041;BME280;5573;49.592;8.662;2023-07-09T09:04:05;100242.63;;;30.97;36.02
11041;BME280;5573;49.592;8.662;2023-07-09T09:06:34;100244.56;;;30.96;36.64
11041;BME280;5573;49.592;8.662;2023-07-09T09:09:08;100243.63;;;31.13;36.11
11041;BME280;5573;49.592;8.662;2023-07-09T09:11:44;100248.25;;;31.21;35.15
11041;BME280;5573;49.592;8.662;2023-07-09T09:14:26;100243.59;;;31.54;35.20
11041;BME280;5573;49.592;8.662;2023-07-09T09:16:56;100237.38;;;31.57;35.99
11041;BME280;5573;49.592;8.662;2023-07-09T09:19:27;100241.47;;;31.51;36.14
11041;BME280;5573;49.592;8.662;2023-07-09T09:22:00;100245.81;;;31.73;35.63
11041;BME280;5573;49.592;8.662;2023-07-09T09:24:35;100245.13;;;31.76;34.12
11041;BME280;5573;49.592;8.662;2023-07-09T09:27:05;100236.41;;;31.74;34.20
11041;BME280;5573;49.592;8.662;2023-07-09T09:29:33;100235.06;;;32.04;34.09
11041;BME280;5573;49.592;8.662;2023-07-09T09:32:17;100227.72;;;31.96;33.56
11041;BME280;5573;49.592;8.662;2023-07-09T09:34:45;100225.75;;;31.85;34.55
11041;BME280;5573;49.592;8.662;2023-07-09T09:37:24;100233.13;;;32.17;33.23
11041;BME280;5573;49.592;8.662;2023-07-09T09:39:53;100229.22;;;32.42;33.77
11041;BME280;5573;49.592;8.662;2023-07-09T09:42:42;100232.63;;;32.76;33.53
11041;BME280;5573;49.592;8.662;2023-07-09T09:45:13;100235.53;;;32.55;32.90
11041;BME280;5573;49.592;8.662;2023-07-09T09:47:43;100240.22;;;32.54;32.03
11041;BME280;5573;49.592;8.662;2023-07-09T09:50:13;100247.16;;;32.60;32.90
11041;BME280;5573;49.592;8.662;2023-07-09T09:52:43;100249.47;;;32.98;31.22
11041;BME280;5573;49.592;8.662;2023-07-09T09:55:13;100247.63;;;33.14;31.36
11041;BME280;5573;49.592;8.662;2023-07-09T09:57:49;100240.91;;;33.28;31.23
11041;BME280;5573;49.592;8.662;2023-07-09T10:00:18;100247.94;;;33.13;30.64
11041;BME280;5573;49.592;8.662;2023-07-09T10:02:46;100239.19;;;33.11;30.34
11041;BME280;5573;49.592;8.662;2023-07-09T10:05:15;100238.59;;;32.90;30.86
11041;BME280;5573;49.592;8.662;2023-07-09T10:07:47;100229.09;;;33.15;31.04
11041;BME280;5573;49.592;8.662;2023-07-09T10:10:21;100227.19;;;33.47;29.82
11041;BME280;5573;49.592;8.662;2023-07-09T10:12:54;100224.56;;;33.23;29.19
11041;BME280;5573;49.592;8.662;2023-07-09T10:15:31;100218.53;;;33.33;29.46
11041;BME280;5573;49.592;8.662;2023-07-09T10:18:03;100223.44;;;33.24;29.98
11041;BME280;5573;49.592;8.662;2023-07-09T10:20:37;100208.56;;;33.44;29.71
11041;BME280;5573;49.592;8.662;2023-07-09T10:23:20;100211.38;;;33.59;28.99
11041;BME280;5573;49.592;8.662;2023-07-09T10:25:53;100219.56;;;33.56;28.54
11041;BME280;5573;49.592;8.662;2023-07-09T10:31:34;100207.47;;;33.60;28.42
11041;BME280;5573;49.592;8.662;2023-07-09T10:34:17;100198.84;;;33.93;28.34
11041;BME280;5573;49.592;8.662;2023-07-09T10:37:04;100196.41;;;33.92;28.30
11041;BME280;5573;49.592;8.662;2023-07-09T10:39:38;100199.97;;;34.08;27.95
11041;BME280;5573;49.592;8.662;2023-07-09T10:42:12;100197.16;;;34.20;27.29
11041;BME280;5573;49.592;8.662;2023-07-09T10:44:51;100187.31;;;34.07;27.19
11041;BME280;5573;49.592;8.662;2023-07-09T10:47:27;100182.78;;;34.15;27.14
11041;BME280;5573;49.592;8.662;2023-07-09T10:49:56;100189.22;;;34.53;25.96
11041;BME280;5573;49.592;8.662;2023-07-09T10:52:29;100187.59;;;34.52;25.77
11041;BME280;5573;49.592;8.662;2023-07-09T10:55:01;100132.34;;;34.21;26.42
11041;BME280;5573;49.592;8.662;2023-07-09T10:57:38;100182.28;;;34.98;24.96
11041;BME280;5573;49.592;8.662;2023-07-09T11:00:15;100192.47;;;34.94;25.66
11041;BME280;5573;49.592;8.662;2023-07-09T11:02:45;100182.75;;;34.84;25.41
11041;BME280;5573;49.592;8.662;2023-07-09T11:05:15;100183.88;;;34.80;25.79
11041;BME280;5573;49.592;8.662;2023-07-09T11:07:58;100169.91;;;34.73;25.70
11041;BME280;5573;49.592;8.662;2023-07-09T11:10:31;100172.75;;;34.61;25.70
11041;BME280;5573;49.592;8.662;2023-07-09T11:13:03;100166.38;;;35.14;25.89
11041;BME280;5573;49.592;8.662;2023-07-09T11:15:36;100165.66;;;34.98;25.72
11041;BME280;5573;49.592;8.662;2023-07-09T11:18:06;100137.97;;;34.98;25.25
11041;BME280;5573;49.592;8.662;2023-07-09T11:20:36;100160.59;;;35.03;25.07
11041;BME280;5573;49.592;8.662;2023-07-09T11:23:17;100153.75;;;35.36;25.81
11041;BME280;5573;49.592;8.662;2023-07-09T11:25:47;100142.84;;;35.46;25.50
11041;BME280;5573;49.592;8.662;2023-07-09T11:28:16;100148.38;;;35.46;25.71
11041;BME280;5573;49.592;8.662;2023-07-09T11:30:50;100143.09;;;35.61;25.04
11041;BME280;5573;49.592;8.662;2023-07-09T11:33:20;100146.03;;;35.94;23.87
11041;BME280;5573;49.592;8.662;2023-07-09T11:35:52;100140.09;;;35.69;24.92
11041;BME280;5573;49.592;8.662;2023-07-09T11:38:24;100140.06;;;35.92;24.16
11041;BME280;5573;49.592;8.662;2023-07-09T11:40:54;100135.13;;;35.59;24.08
11041;BME280;5573;49.592;8.662;2023-07-09T11:43:32;100140.63;;;35.56;24.10
11041;BME280;5573;49.592;8.662;2023-07-09T11:46:09;100141.28;;;35.94;24.02
11041;BME280;5573;49.592;8.662;2023-07-09T11:48:40;100130.13;;;35.91;23.52
11041;BME280;5573;49.592;8.662;2023-07-09T11:51:15;100122.97;;;35.90;23.96
11041;BME280;5573;49.592;8.662;2023-07-09T11:53:48;100124.25;;;35.70;23.53
11041;BME280;5573;49.592;8.662;2023-07-09T11:56:18;100126.72;;;35.75;22.97
11041;BME280;5573;49.592;8.662;2023-07-09T11:58:50;100122.53;;;35.84;24.07
11041;BME280;5573;49.592;8.662;2023-07-09T12:01:22;100122.53;;;35.84;22.76
11041;BME280;5573;49.592;8.662;2023-07-09T12:03:52;100122.91;;;36.09;22.90
11041;BME280;5573;49.592;8.662;2023-07-09T12:06:23;100119.66;;;36.33;22.43
11041;BME280;5573;49.592;8.662;2023-07-09T12:08:52;100120.56;;;36.71;21.92
11041;BME280;5573;49.592;8.662;2023-07-09T12:11:22;100111.31;;;36.60;22.48
11041;BME280;5573;49.592;8.662;2023-07-09T12:13:50;100115.50;;;36.46;22.63
11041;BME280;5573;49.592;8.662;2023-07-09T12:16:25;100112.44;;;36.55;22.02
11041;BME280;5573;49.592;8.662;2023-07-09T12:18:53;100104.63;;;36.64;21.62
11041;BME280;5573;49.592;8.662;2023-07-09T12:21:22;100102.41;;;36.77;20.37
11041;BME280;5573;49.592;8.662;2023-07-09T12:23:52;100108.34;;;36.75;19.75
11041;BME280;5573;49.592;8.662;2023-07-09T12:26:20;100112.16;;;36.64;20.83
11041;BME280;5573;49.592;8.662;2023-07-09T12:28:50;100096.09;;;36.50;22.01
11041;BME280;5573;49.592;8.662;2023-07-09T12:31:29;100101.59;;;36.76;21.29
11041;BME280;5573;49.592;8.662;2023-07-09T12:33:58;100095.66;;;36.48;21.41
11041;BME280;5573;49.592;8.662;2023-07-09T12:36:27;100094.03;;;36.73;21.20
11041;BME280;5573;49.592;8.662;2023-07-09T12:39:01;100069.13;;;36.47;20.46
11041;BME280;5573;49.592;8.662;2023-07-09T12:41:35;100075.66;;;36.62;18.92
11041;BME280;5573;49.592;8.662;2023-07-09T12:44:06;100076.31;;;36.85;20.28
11041;BME280;5573;49.592;8.662;2023-07-09T12:46:40;100062.50;;;36.92;20.21
11041;BME280;5573;49.592;8.662;2023-07-09T12:49:20;100069.09;;;37.14;18.99
11041;BME280;5573;49.592;8.662;2023-07-09T12:51:49;100061.91;;;37.09;20.34
11041;BME280;5573;49.592;8.662;2023-07-09T12:54:19;100055.53;;;37.09;19.23
11041;BME280;5573;49.592;8.662;2023-07-09T12:56:50;100032.78;;;36.59;20.44
11041;BME280;5573;49.592;8.662;2023-07-09T12:59:21;100053.03;;;37.00;19.29
11041;BME280;5573;49.592;8.662;2023-07-09T13:01:59;100046.59;;;36.89;19.91
11041;BME280;5573;49.592;8.662;2023-07-09T13:04:30;100040.13;;;36.78;20.00
11041;BME280;5573;49.592;8.662;2023-07-09T13:06:58;100047.78;;;36.55;19.99
11041;BME280;5573;49.592;8.662;2023-07-09T13:09:28;100043.59;;;36.34;20.34
11041;BME280;5573;49.592;8.662;2023-07-09T13:11:56;100041.13;;;36.29;21.90
11041;BME280;5573;49.592;8.662;2023-07-09T13:14:27;100031.31;;;36.35;22.50
11041;BME280;5573;49.592;8.662;2023-07-09T13:17:04;100040.97;;;36.15;21.61
11041;BME280;5573;49.592;8.662;2023-07-09T13:19:33;100038.34;;;36.29;20.56